Time;durP1;ratioP1;P1;durP2;ratioP2;P2;SDS_P1;SDS_P2;PMS_P1;PMS_P2;Temp;Humidity;BMP_temperature;BMP_pressure;BME280_temperature;BME280_humidity;BME280_pressure;Samples;Min_cycle;Max_cycle;Signal;HPM_P1;HPM_P2
2023/09/25 00:00:49;;;;;;;3.75;1.52;;;12.20;99.90;;;;;;5035658;28;20189;-86
2023/09/25 00:03:15;;;;;;;4.15;2.08;;;12.30;99.90;;;;;;5035500;28;20653;-85
2023/09/25 00:05:41;;;;;;;1.60;1.50;;;12.20;99.90;;;;;;5035118;28;20193;-86
2023/09/25 00:08:08;;;;;;;3.03;1.80;;;12.20;99.90;;;;;;5035326;28;20173;-86
2023/09/25 00:10:36;;;;;;;2.28;1.80;;;12.20;99.90;;;;;;5035390;28;20171;-86
2023/09/25 00:13:01;;;;;;;3.63;2.03;;;12.20;99.90;;;;;;5034054;28;20194;-87
2023/09/25 00:15:27;;;;;;;4.05;1.70;;;12.20;99.90;;;;;;5035322;28;20174;-86
2023/09/25 00:17:53;;;;;;;2.67;1.80;;;12.20;99.90;;;;;;5033912;28;20201;-84
2023/09/25 00:20:24;;;;;;;4.25;1.60;;;12.20;99.90;;;;;;5029438;28;20179;-85
2023/09/25 00:22:51;;;;;;;3.97;1.77;;;12.20;99.90;;;;;;5013548;28;20558;-86
2023/09/25 00:25:20;;;;;;;5.43;1.73;;;12.20;99.90;;;;;;5015377;28;20513;-86
2023/09/25 00:27:46;;;;;;;2.22;1.67;;;12.20;99.90;;;;;;5014123;28;20194;-87
2023/09/25 00:30:14;;;;;;;3.33;1.90;;;12.10;99.90;;;;;;5015365;28;20210;-85
2023/09/25 00:32:40;;;;;;;2.45;1.73;;;12.10;99.90;;;;;;5013959;28;20186;-85
2023/09/25 00:35:07;;;;;;;4.90;1.50;;;12.10;99.90;;;;;;5014948;28;20221;-87
2023/09/25 00:37:34;;;;;;;4.20;1.88;;;12.10;99.90;;;;;;5015386;28;20195;-85
2023/09/25 00:40:06;;;;;;;3.05;1.75;;;12.10;99.90;;;;;;5013795;28;20558;-86
2023/09/25 00:42:32;;;;;;;6.13;1.65;;;12.10;99.90;;;;;;5015042;28;20205;-87
2023/09/25 00:44:59;;;;;;;2.67;1.70;;;12.00;99.90;;;;;;5015244;28;20171;-87
2023/09/25 00:47:25;;;;;;;3.20;2.00;;;11.90;99.90;;;;;;5015034;28;20175;-87
2023/09/25 00:49:51;;;;;;;4.47;1.90;;;12.00;99.90;;;;;;5032423;28;20190;-85
2023/09/25 00:52:16;;;;;;;4.95;1.80;;;11.90;99.90;;;;;;5033350;28;20216;-86
2023/09/25 00:54:42;;;;;;;3.25;1.75;;;12.00;99.90;;;;;;5033478;28;20193;-86
2023/09/25 00:57:09;;;;;;;2.72;1.70;;;12.00;99.90;;;;;;5034672;28;20515;-85
2023/09/25 00:59:38;;;;;;;3.08;1.77;;;12.00;99.90;;;;;;5034709;28;20171;-86
2023/09/25 01:02:05;;;;;;;5.35;1.83;;;12.00;99.90;;;;;;5033136;28;20178;-86
2023/09/25 01:04:31;;;;;;;1.83;1.70;;;12.00;99.90;;;;;;5033105;28;21031;-86
2023/09/25 01:06:57;;;;;;;3.15;2.20;;;11.90;99.90;;;;;;5032469;28;20178;-86
2023/09/25 01:09:22;;;;;;;3.05;1.73;;;12.00;99.90;;;;;;5033253;28;20183;-87
2023/09/25 01:11:48;;;;;;;4.68;2.30;;;11.90;99.90;;;;;;5033162;28;20632;-84
2023/09/25 01:14:14;;;;;;;3.75;1.90;;;11.90;99.90;;;;;;5032953;28;20275;-86
2023/09/25 01:16:41;;;;;;;2.45;1.70;;;11.90;99.90;;;;;;5034201;28;20181;-87
2023/09/25 01:19:06;;;;;;;3.45;2.13;;;11.90;99.90;;;;;;5495724;22;20234;-85
2023/09/25 01:21:36;;;;;;;1.63;1.52;;;11.90;99.90;;;;;;5032330;28;20205;-86
2023/09/25 01:24:02;;;;;;;3.80;1.88;;;11.90;99.90;;;;;;5033021;28;20217;-84
2023/09/25 01:26:28;;;;;;;3.47;2.17;;;11.90;99.90;;;;;;5033115;28;20209;-86
2023/09/25 01:28:54;;;;;;;3.67;1.85;;;11.90;99.90;;;;;;5033186;28;20232;-86
2023/09/25 01:31:20;;;;;;;6.57;2.00;;;11.90;99.90;;;;;;5033171;28;20174;-85
2023/09/25 01:33:46;;;;;;;5.28;1.95;;;11.80;99.90;;;;;;5032894;28;20200;-86
2023/09/25 01:36:12;;;;;;;2.83;1.95;;;11.80;99.90;;;;;;5034322;28;20254;-87
2023/09/25 01:38:38;;;;;;;2.85;1.75;;;11.80;99.90;;;;;;5033147;28;20190;-88
2023/09/25 01:41:05;;;;;;;4.00;2.00;;;11.80;99.90;;;;;;5032956;28;20174;-86
2023/09/25 01:43:31;;;;;;;4.40;2.10;;;11.80;99.90;;;;;;5034057;28;20202;-87
2023/09/25 01:45:56;;;;;;;8.15;2.35;;;11.80;99.90;;;;;;5032903;28;20175;-87
2023/09/25 01:48:22;;;;;;;2.47;1.80;;;11.70;99.90;;;;;;5034118;28;20519;-87
2023/09/25 01:50:50;;;;;;;3.38;2.08;;;11.70;99.90;;;;;;5032462;28;20246;-87
2023/09/25 01:53:15;;;;;;;3.45;1.88;;;11.70;99.90;;;;;;5032842;28;20179;-87
2023/09/25 01:55:42;;;;;;;4.53;1.85;;;11.70;99.90;;;;;;5032734;28;20209;-87
2023/09/25 01:58:08;;;;;;;2.47;2.00;;;11.60;99.90;;;;;;5032725;28;20178;-87
2023/09/25 02:00:34;;;;;;;6.18;2.10;;;11.60;99.90;;;;;;5032660;28;20181;-87
2023/09/25 02:03:00;;;;;;;4.43;2.10;;;11.60;99.90;;;;;;5033922;28;20661;-87
2023/09/25 02:05:26;;;;;;;3.28;2.00;;;11.50;99.90;;;;;;5033920;28;20685;-87
2023/09/25 02:07:52;;;;;;;5.47;2.22;;;11.50;99.90;;;;;;5032821;28;20261;-87
2023/09/25 02:10:18;;;;;;;3.47;1.80;;;11.50;99.90;;;;;;5032829;28;20632;-87
2023/09/25 02:12:44;;;;;;;3.53;1.90;;;11.50;99.90;;;;;;5032592;28;20182;-86
2023/09/25 02:15:10;;;;;;;3.55;1.90;;;11.60;99.90;;;;;;5032738;28;20717;-88
2023/09/25 02:17:36;;;;;;;3.50;1.70;;;11.60;99.90;;;;;;5034852;28;20198;-86
2023/09/25 02:20:25;;;;;;;2.80;2.17;;;11.60;99.90;;;;;;5035995;28;20230;-87
2023/09/25 02:22:51;;;;;;;3.67;2.13;;;11.60;99.90;;;;;;5037274;28;20285;-86
2023/09/25 02:25:17;;;;;;;3.45;1.80;;;11.60;99.90;;;;;;5036362;28;20185;-87
2023/09/25 02:27:43;;;;;;;3.53;2.30;;;11.60;99.90;;;;;;5036175;28;20656;-86
2023/09/25 02:30:10;;;;;;;5.85;2.20;;;11.50;99.90;;;;;;5037422;28;20222;-85
2023/09/25 02:32:37;;;;;;;3.50;1.80;;;11.40;99.90;;;;;;5037419;28;20181;-87
2023/09/25 02:35:04;;;;;;;4.40;2.05;;;11.40;99.90;;;;;;5035815;28;20181;-87
2023/09/25 02:37:31;;;;;;;2.95;1.70;;;11.30;99.90;;;;;;5035981;28;20175;-86
2023/09/25 02:39:57;;;;;;;3.67;2.13;;;11.20;99.90;;;;;;5035919;28;20597;-86
2023/09/25 02:42:24;;;;;;;2.90;2.00;;;11.10;99.90;;;;;;5035733;28;20286;-86
2023/09/25 02:44:51;;;;;;;2.33;1.80;;;11.10;99.90;;;;;;5037157;28;20197;-86
2023/09/25 02:47:17;;;;;;;2.65;1.90;;;10.90;99.90;;;;;;5037305;28;20179;-86
2023/09/25 02:49:43;;;;;;;3.10;1.95;;;10.80;99.90;;;;;;5035547;28;20190;-85
2023/09/25 02:52:08;;;;;;;3.15;2.08;;;10.80;99.90;;;;;;5035787;28;20179;-86
2023/09/25 02:54:34;;;;;;;3.22;2.13;;;10.80;99.90;;;;;;5035638;28;20206;-87
2023/09/25 02:57:00;;;;;;;2.30;2.10;;;10.80;99.90;;;;;;5035868;28;20245;-86
2023/09/25 02:59:25;;;;;;;2.83;2.20;;;10.80;99.90;;;;;;5035536;28;20170;-86
2023/09/25 03:01:51;;;;;;;3.08;1.70;;;10.70;99.90;;;;;;5036769;28;20193;-86
2023/09/25 03:04:17;;;;;;;2.85;2.05;;;10.70;99.90;;;;;;5035629;28;20293;-87
2023/09/25 03:06:42;;;;;;;3.90;2.20;;;10.80;99.90;;;;;;5035204;28;20185;-87
2023/09/25 03:09:08;;;;;;;2.53;2.15;;;10.80;99.90;;;;;;5035485;28;20225;-86
2023/09/25 03:11:35;;;;;;;2.55;2.00;;;10.80;99.90;;;;;;5035393;28;20232;-86
2023/09/25 03:14:01;;;;;;;2.70;2.08;;;10.80;99.90;;;;;;5035352;28;20174;-86
2023/09/25 03:16:26;;;;;;;4.63;2.45;;;10.90;99.90;;;;;;5036531;28;20236;-85
2023/09/25 03:18:52;;;;;;;4.03;2.30;;;10.90;99.90;;;;;;5036281;28;20240;-87
2023/09/25 03:21:18;;;;;;;4.22;2.30;;;11.00;99.90;;;;;;5034992;28;20186;-86
2023/09/25 03:23:45;;;;;;;4.40;2.38;;;11.10;99.90;;;;;;5035119;28;20730;-86
2023/09/25 03:26:19;;;;;;;7.00;2.22;;;11.10;99.90;;;;;;5035194;28;20185;-86
2023/09/25 03:28:46;;;;;;;2.80;2.10;;;11.10;99.90;;;;;;5036063;28;20201;-86
2023/09/25 03:31:12;;;;;;;6.40;2.38;;;11.20;99.90;;;;;;5036393;28;20171;-86
2023/09/25 03:33:39;;;;;;;6.15;2.28;;;11.20;99.90;;;;;;5036299;28;20159;-85
2023/09/25 03:36:05;;;;;;;3.10;2.05;;;11.30;99.90;;;;;;5034809;28;20170;-85
2023/09/25 03:38:31;;;;;;;4.25;2.30;;;11.30;99.90;;;;;;5034931;28;20186;-85
2023/09/25 03:40:57;;;;;;;3.10;2.53;;;11.30;99.90;;;;;;5034880;28;20259;-87
2023/09/25 03:43:23;;;;;;;4.53;2.10;;;11.30;99.90;;;;;;5034791;28;20254;-87
2023/09/25 03:45:49;;;;;;;3.40;2.40;;;11.30;99.90;;;;;;5034849;28;20179;-85
2023/09/25 03:48:15;;;;;;;4.95;2.50;;;11.30;99.90;;;;;;5036072;28;20179;-86
2023/09/25 03:50:41;;;;;;;3.10;2.40;;;11.30;99.90;;;;;;5034370;28;20494;-87
2023/09/25 03:53:08;;;;;;;3.22;2.30;;;11.30;99.90;;;;;;5035805;28;20202;-85
2023/09/25 03:55:34;;;;;;;2.50;2.25;;;11.30;99.90;;;;;;5035926;28;20651;-87
2023/09/25 03:57:59;;;;;;;3.15;2.38;;;11.30;99.90;;;;;;5034506;28;20244;-86
2023/09/25 04:00:26;;;;;;;2.95;2.30;;;11.30;99.90;;;;;;5035959;28;20170;-87
2023/09/25 04:02:53;;;;;;;2.72;2.40;;;11.20;99.90;;;;;;5034437;28;20666;-86
2023/09/25 04:05:19;;;;;;;4.10;2.50;;;11.20;99.90;;;;;;5034121;28;20182;-87
2023/09/25 04:07:45;;;;;;;4.30;2.60;;;11.20;99.90;;;;;;5035518;28;20262;-86
2023/09/25 04:10:11;;;;;;;3.75;2.67;;;11.10;99.90;;;;;;5034183;28;20183;-85
2023/09/25 04:12:38;;;;;;;2.90;2.60;;;11.00;99.90;;;;;;5034126;28;20175;-86
2023/09/25 04:15:08;;;;;;;3.03;2.70;;;11.00;99.90;;;;;;5035764;28;20167;-84
2023/09/25 04:17:34;;;;;;;4.18;2.70;;;11.00;99.90;;;;;;5034234;28;20217;-87
2023/09/25 04:20:01;;;;;;;3.92;2.75;;;11.00;99.90;;;;;;5034772;28;20246;-86
2023/09/25 04:22:27;;;;;;;5.72;3.33;;;11.00;99.90;;;;;;5033764;28;20923;-84
2023/09/25 04:24:53;;;;;;;6.57;3.15;;;11.00;99.90;;;;;;5034038;28;20179;-85
2023/09/25 04:27:20;;;;;;;4.72;3.50;;;11.00;99.90;;;;;;5033654;28;20181;-83
2023/09/25 04:29:46;;;;;;;6.40;3.80;;;11.00;99.90;;;;;;5033980;28;20526;-85
2023/09/25 04:32:14;;;;;;;7.70;3.42;;;11.10;99.90;;;;;;5033879;28;20186;-83
2023/09/25 04:34:39;;;;;;;4.57;3.53;;;11.10;99.90;;;;;;5033566;28;20178;-84
2023/09/25 04:37:08;;;;;;;4.53;3.75;;;11.00;99.90;;;;;;5033538;28;20493;-87
2023/09/25 04:39:33;;;;;;;4.68;3.60;;;11.00;99.90;;;;;;5033291;28;20235;-84
2023/09/25 04:41:59;;;;;;;4.40;3.25;;;11.00;99.90;;;;;;5033214;28;20265;-85
2023/09/25 04:44:25;;;;;;;6.00;3.80;;;11.00;99.90;;;;;;5033605;28;20205;-85
2023/09/25 04:46:51;;;;;;;4.55;3.70;;;11.10;99.90;;;;;;5033388;28;20712;-85
2023/09/25 04:49:18;;;;;;;5.05;3.78;;;11.10;99.90;;;;;;5034580;28;20273;-84
2023/09/25 04:51:44;;;;;;;6.82;3.83;;;11.20;99.90;;;;;;5034376;28;20250;-85
2023/09/25 04:54:10;;;;;;;4.13;3.50;;;11.20;99.90;;;;;;5034280;28;20537;-86
2023/09/25 04:56:36;;;;;;;4.95;3.40;;;11.20;99.90;;;;;;5013688;28;20186;-87
2023/09/25 04:59:03;;;;;;;4.90;3.60;;;11.20;99.90;;;;;;5014766;28;20171;-86
2023/09/25 05:01:29;;;;;;;5.43;3.65;;;11.30;99.90;;;;;;5014787;28;20187;-84
2023/09/25 05:03:54;;;;;;;3.70;3.40;;;11.30;99.90;;;;;;5014538;28;20200;-85
2023/09/25 05:06:20;;;;;;;4.35;3.67;;;11.30;99.90;;;;;;5014504;28;20167;-86
2023/09/25 05:08:46;;;;;;;5.25;3.40;;;11.30;99.90;;;;;;5014810;28;20171;-84
2023/09/25 05:11:11;;;;;;;7.20;4.10;;;11.30;99.90;;;;;;5013544;28;20541;-86
2023/09/25 05:13:37;;;;;;;5.85;3.47;;;11.30;99.90;;;;;;5013458;28;20689;-86
2023/09/25 05:16:03;;;;;;;5.82;3.67;;;11.30;99.90;;;;;;5013311;28;20175;-85
2023/09/25 05:18:30;;;;;;;3.45;3.10;;;11.20;99.90;;;;;;5013105;28;20187;-85
2023/09/25 05:20:59;;;;;;;5.35;3.53;;;11.20;99.90;;;;;;5027238;28;20321;-84
2023/09/25 05:23:25;;;;;;;9.95;3.75;;;11.10;99.90;;;;;;5032837;28;20202;-85
2023/09/25 05:25:52;;;;;;;4.30;3.47;;;11.10;99.90;;;;;;5034292;28;20166;-85
2023/09/25 05:28:18;;;;;;;5.78;3.50;;;11.10;99.90;;;;;;5032972;28;20178;-85
2023/09/25 05:30:43;;;;;;;5.53;3.58;;;11.10;99.90;;;;;;5032721;28;20585;-83
2023/09/25 05:33:09;;;;;;;3.97;3.25;;;11.10;99.90;;;;;;5033925;28;20626;-86
2023/09/25 05:35:35;;;;;;;4.15;3.28;;;11.20;99.90;;;;;;5033819;28;20166;-86
2023/09/25 05:38:01;;;;;;;4.13;3.42;;;11.20;99.90;;;;;;5032768;28;20174;-85
2023/09/25 05:40:26;;;;;;;4.03;3.63;;;11.40;99.90;;;;;;5034050;28;20609;-85
2023/09/25 05:42:52;;;;;;;4.45;3.38;;;11.50;99.90;;;;;;5033849;28;20201;-85
2023/09/25 05:45:22;;;;;;;3.42;3.03;;;11.60;99.90;;;;;;5032641;28;20242;-85
2023/09/25 05:47:47;;;;;;;4.47;3.13;;;11.70;99.90;;;;;;5032593;28;20261;-85
2023/09/25 05:50:14;;;;;;;5.07;3.00;;;11.80;99.90;;;;;;5032352;28;21064;-87
2023/09/25 05:52:40;;;;;;;3.85;3.00;;;11.80;99.90;;;;;;5035549;28;20175;-85
2023/09/25 05:55:07;;;;;;;4.28;3.10;;;11.90;99.90;;;;;;5037915;28;20217;-84
2023/09/25 05:57:34;;;;;;;5.47;3.08;;;11.90;99.90;;;;;;5037939;28;20166;-86
2023/09/25 06:00:00;;;;;;;5.47;2.97;;;11.90;99.90;;;;;;5036495;28;20186;-86
2023/09/25 06:02:27;;;;;;;6.40;3.20;;;11.80;99.90;;;;;;5037671;28;20171;-85
2023/09/25 06:04:54;;;;;;;5.25;2.83;;;11.80;99.90;;;;;;5036508;28;20182;-86
2023/09/25 06:07:20;;;;;;;3.33;2.80;;;11.90;99.90;;;;;;5036263;28;20212;-85
2023/09/25 06:09:46;;;;;;;4.45;2.80;;;11.90;99.90;;;;;;5037778;28;20490;-85
2023/09/25 06:12:13;;;;;;;4.53;2.92;;;11.90;99.90;;;;;;5036206;28;20201;-86
2023/09/25 06:14:39;;;;;;;4.30;2.55;;;11.90;99.90;;;;;;5036239;28;20186;-85
2023/09/25 06:17:05;;;;;;;4.70;3.00;;;11.90;99.90;;;;;;5036098;28;20184;-85
2023/09/25 06:19:31;;;;;;;3.45;2.58;;;12.00;99.90;;;;;;5037182;28;20301;-86
2023/09/25 06:21:57;;;;;;;2.90;2.70;;;12.10;99.90;;;;;;5037026;28;20671;-85
2023/09/25 06:24:22;;;;;;;4.82;2.80;;;12.20;99.90;;;;;;5036120;28;20209;-87
2023/09/25 06:26:49;;;;;;;3.60;2.88;;;12.20;99.90;;;;;;5036076;28;20182;-86
2023/09/25 06:29:15;;;;;;;5.00;2.50;;;12.30;99.90;;;;;;5036434;28;20202;-86
2023/09/25 06:31:42;;;;;;;4.80;2.97;;;12.40;99.90;;;;;;5037282;28;20205;-86
2023/09/25 06:34:08;;;;;;;3.25;2.70;;;12.40;99.90;;;;;;5035959;28;20178;-85
2023/09/25 06:36:37;;;;;;;4.47;2.58;;;12.50;99.90;;;;;;5037283;28;20637;-85
2023/09/25 06:39:08;;;;;;;3.35;2.28;;;12.60;99.90;;;;;;5035814;28;20204;-87
2023/09/25 06:41:35;;;;;;;3.22;2.10;;;12.70;99.90;;;;;;5035635;28;20182;-85
2023/09/25 06:44:01;;;;;;;2.95;2.17;;;12.80;99.90;;;;;;5036940;28;20241;-85
2023/09/25 06:46:27;;;;;;;5.47;2.40;;;12.90;99.90;;;;;;5035580;28;20175;-84
2023/09/25 06:48:53;;;;;;;3.65;2.20;;;13.00;99.90;;;;;;5035620;28;20270;-85
2023/09/25 06:51:18;;;;;;;3.88;2.50;;;13.00;99.90;;;;;;5035302;28;20199;-84
2023/09/25 06:53:44;;;;;;;3.83;2.28;;;13.10;99.90;;;;;;5035546;28;20178;-86
2023/09/25 06:56:10;;;;;;;2.60;1.88;;;13.20;99.90;;;;;;5035732;28;20178;-86
2023/09/25 06:58:37;;;;;;;3.65;2.15;;;13.20;99.90;;;;;;5035842;28;20185;-87
2023/09/25 07:01:03;;;;;;;2.35;1.90;;;13.40;99.90;;;;;;5035659;28;20660;-88
2023/09/25 07:03:29;;;;;;;4.95;2.25;;;13.50;99.90;;;;;;5034513;28;20341;-84
2023/09/25 07:05:56;;;;;;;3.67;2.20;;;13.60;99.90;;;;;;5036473;28;20478;-86
2023/09/25 07:08:22;;;;;;;2.35;1.80;;;13.70;99.90;;;;;;5036667;28;20178;-85
2023/09/25 07:10:49;;;;;;;4.13;1.98;;;13.70;99.90;;;;;;5035426;28;20262;-87
2023/09/25 07:13:16;;;;;;;2.40;1.75;;;13.90;99.90;;;;;;5036538;28;20487;-84
2023/09/25 07:15:43;;;;;;;3.28;1.90;;;13.90;99.90;;;;;;5035272;28;20210;-87
2023/09/25 07:18:10;;;;;;;3.22;1.98;;;14.00;99.90;;;;;;5035189;28;20194;-87
2023/09/25 07:20:36;;;;;;;3.05;1.60;;;14.10;99.90;;;;;;5036000;28;20245;-86
2023/09/25 07:23:03;;;;;;;2.25;1.50;;;14.20;99.90;;;;;;5031887;28;20202;-87
2023/09/25 07:25:29;;;;;;;2.78;1.50;;;14.20;99.90;;;;;;5029720;28;20194;-88
2023/09/25 07:27:55;;;;;;;2.25;1.80;;;14.30;99.90;;;;;;5036064;28;20281;-85
2023/09/25 07:30:21;;;;;;;3.13;1.58;;;14.40;99.90;;;;;;5035216;28;20186;-85
2023/09/25 07:32:48;;;;;;;2.28;1.58;;;14.40;99.90;;;;;;5034721;28;20190;-85
2023/09/25 07:35:15;;;;;;;2.00;1.73;;;14.50;99.90;;;;;;5034774;28;20186;-84
2023/09/25 07:37:42;;;;;;;3.33;1.98;;;14.60;99.90;;;;;;5034707;28;20190;-82
2023/09/25 07:40:10;;;;;;;5.32;1.67;;;14.60;99.90;;;;;;5034660;28;20187;-86
2023/09/25 07:42:37;;;;;;;2.42;1.65;;;14.60;99.90;;;;;;5035010;28;20193;-87
2023/09/25 07:45:05;;;;;;;3.17;1.70;;;14.60;99.90;;;;;;5034950;28;20187;-86
2023/09/25 07:47:32;;;;;;;3.83;1.90;;;14.70;99.90;;;;;;5035973;28;20509;-86
2023/09/25 07:49:58;;;;;;;1.88;1.50;;;14.70;99.90;;;;;;5034818;28;20265;-87
2023/09/25 07:52:24;;;;;;;2.00;1.58;;;14.70;99.90;;;;;;5027329;28;20718;-85
2023/09/25 07:54:51;;;;;;;2.33;1.38;;;14.80;99.90;;;;;;5014030;28;20185;-87
2023/09/25 07:57:21;;;;;;;1.95;1.60;;;14.90;99.90;;;;;;5014385;28;20190;-86
2023/09/25 07:59:47;;;;;;;2.33;1.70;;;15.00;99.90;;;;;;5014809;28;20221;-87
2023/09/25 08:02:20;;;;;;;2.25;1.60;;;15.10;99.90;;;;;;5015848;28;20610;-85
2023/09/25 08:04:49;;;;;;;5.32;1.80;;;15.10;99.90;;;;;;5014553;28;20206;-85
2023/09/25 08:07:15;;;;;;;1.75;1.27;;;15.20;99.90;;;;;;5014137;28;20604;-84
2023/09/25 08:09:41;;;;;;;2.88;1.52;;;15.30;99.90;;;;;;5015808;28;20250;-87
2023/09/25 08:12:07;;;;;;;3.58;1.70;;;15.40;99.90;;;;;;5014590;28;20181;-86
2023/09/25 08:14:32;;;;;;;3.10;1.58;;;15.40;99.90;;;;;;5015189;28;20505;-87
2023/09/25 08:16:58;;;;;;;2.58;1.27;;;15.50;99.90;;;;;;5014157;28;20175;-87
2023/09/25 08:19:24;;;;;;;2.50;1.40;;;15.50;99.90;;;;;;5016151;28;20235;-86
2023/09/25 08:21:53;;;;;;;2.80;1.35;;;15.60;99.90;;;;;;5033850;28;20201;-86
2023/09/25 08:24:21;;;;;;;2.47;1.40;;;15.60;99.90;;;;;;5033272;28;20229;-86
2023/09/25 08:26:47;;;;;;;2.47;1.48;;;15.70;99.90;;;;;;5035353;28;20265;-87
2023/09/25 08:29:16;;;;;;;6.20;1.73;;;15.80;99.90;;;;;;5034339;28;20182;-89
2023/09/25 08:31:45;;;;;;;2.05;1.30;;;15.80;99.90;;;;;;5033934;28;20205;-88
2023/09/25 08:34:14;;;;;;;2.38;1.40;;;15.80;99.90;;;;;;5033670;28;20190;-86
2023/09/25 08:36:39;;;;;;;2.50;1.42;;;15.90;99.90;;;;;;5034822;28;20189;-87
2023/09/25 08:39:06;;;;;;;1.52;1.10;;;16.00;99.90;;;;;;5033814;28;20182;-87
2023/09/25 08:41:34;;;;;;;2.63;1.40;;;16.20;99.90;;;;;;5035289;28;20637;-86
2023/09/25 08:44:01;;;;;;;4.82;1.40;;;16.20;99.90;;;;;;5034941;28;20237;-86
2023/09/25 08:46:28;;;;;;;2.97;1.30;;;16.30;99.90;;;;;;5034836;28;20204;-88
2023/09/25 08:48:56;;;;;;;3.05;1.40;;;16.40;99.90;;;;;;5033745;28;20190;-88
2023/09/25 08:51:29;;;;;;;2.15;1.25;;;16.40;99.90;;;;;;5033652;28;20634;-88
2023/09/25 08:53:55;;;;;;;2.47;1.40;;;16.50;99.90;;;;;;5033281;28;20614;-87
2023/09/25 08:56:21;;;;;;;2.90;1.40;;;16.60;99.90;;;;;;5033431;28;20182;-88
2023/09/25 08:58:49;;;;;;;2.83;1.38;;;16.60;99.90;;;;;;5033735;28;20617;-88
2023/09/25 09:01:16;;;;;;;5.28;1.35;;;16.70;99.90;;;;;;5033611;28;20205;-86
2023/09/25 09:03:43;;;;;;;2.70;1.25;;;16.70;99.90;;;;;;5033508;28;20683;-88
2023/09/25 09:06:09;;;;;;;1.15;1.05;;;16.80;99.90;;;;;;5034471;28;20778;-89
2023/09/25 09:08:36;;;;;;;2.28;1.25;;;16.90;99.90;;;;;;5033387;28;20273;-87
2023/09/25 09:11:12;;;;;;;1.88;1.00;;;17.00;99.90;;;;;;5034587;28;20171;-87
2023/09/25 09:13:45;;;;;;;1.92;1.20;;;17.00;99.90;;;;;;5033193;28;20180;-86
2023/09/25 09:16:12;;;;;;;5.65;1.20;;;17.00;99.90;;;;;;5033387;28;20245;-87
2023/09/25 09:18:38;;;;;;;4.10;1.13;;;17.10;99.90;;;;;;5033397;28;20613;-88
2023/09/25 09:21:04;;;;;;;1.70;1.10;;;17.10;99.90;;;;;;5033011;28;20712;-87
2023/09/25 09:23:42;;;;;;;1.70;1.10;;;17.20;99.90;;;;;;5033218;28;20309;-89
2023/09/25 09:26:10;;;;;;;1.20;1.00;;;17.40;99.90;;;;;;5033244;28;20189;-87
2023/09/25 09:28:37;;;;;;;1.98;1.08;;;17.50;99.90;;;;;;5033011;28;20237;-88
2023/09/25 09:31:06;;;;;;;6.57;1.10;;;17.60;99.90;;;;;;5032959;28;20265;-87
2023/09/25 09:33:32;;;;;;;2.75;0.90;;;17.70;99.90;;;;;;5034270;28;20258;-85
2023/09/25 09:35:57;;;;;;;2.45;1.17;;;17.80;99.90;;;;;;5032875;28;20265;-86
2023/09/25 09:38:25;;;;;;;2.22;1.20;;;17.90;99.90;;;;;;5033961;28;20178;-87
2023/09/25 09:40:51;;;;;;;1.00;0.90;;;18.00;99.90;;;;;;5033031;28;20286;-87
2023/09/25 09:43:20;;;;;;;4.90;1.08;;;18.10;99.90;;;;;;5032981;28;20202;-87
2023/09/25 09:45:50;;;;;;;1.55;0.90;;;18.20;99.90;;;;;;5034267;28;20594;-87
2023/09/25 09:48:19;;;;;;;1.35;0.80;;;18.30;99.90;;;;;;5033056;28;20178;-86
2023/09/25 09:50:49;;;;;;;1.55;1.00;;;18.30;99.90;;;;;;5032780;28;20191;-87
2023/09/25 09:53:17;;;;;;;3.60;1.20;;;18.30;99.90;;;;;;5032893;28;20236;-87
2023/09/25 09:55:44;;;;;;;3.10;1.10;;;18.30;99.90;;;;;;5034363;28;20166;-87
2023/09/25 09:58:11;;;;;;;2.17;1.13;;;18.40;99.90;;;;;;5033228;28;20178;-87
2023/09/25 10:00:40;;;;;;;1.17;0.82;;;18.50;99.90;;;;;;5034628;28;20254;-88
2023/09/25 10:03:10;;;;;;;4.25;1.40;;;18.50;99.90;;;;;;5032769;28;20210;-88
2023/09/25 10:05:44;;;;;;;2.58;0.95;;;18.60;99.90;;;;;;5033112;28;20175;-88
2023/09/25 10:08:10;;;;;;;4.20;1.08;;;18.60;99.90;;;;;;5032933;28;20630;-88
2023/09/25 10:10:38;;;;;;;2.67;1.27;;;18.70;99.90;;;;;;5034020;28;20241;-88
2023/09/25 10:13:09;;;;;;;5.78;1.17;;;18.70;99.90;;;;;;5025555;28;20184;-87
2023/09/25 10:15:36;;;;;;;2.08;1.20;;;18.70;99.90;;;;;;5014160;28;20171;-87
2023/09/25 10:18:02;;;;;;;2.38;1.13;;;18.80;99.90;;;;;;5012780;28;20171;-87
2023/09/25 10:20:40;;;;;;;3.30;1.08;;;18.80;99.90;;;;;;5023246;28;20296;-85
2023/09/25 10:23:06;;;;;;;2.55;1.23;;;18.80;99.90;;;;;;5032005;28;20206;-87
2023/09/25 10:25:50;;;;;;;4.90;1.50;;;18.80;99.90;;;;;;5033482;28;20181;-86
2023/09/25 10:28:32;;;;;;;3.90;1.45;;;19.00;99.90;;;;;;5033538;28;20197;-86
2023/09/25 10:31:03;;;;;;;2.42;1.10;;;19.00;99.90;;;;;;5032203;28;20625;-88
2023/09/25 10:33:35;;;;;;;3.00;1.20;;;19.00;99.90;;;;;;5032438;28;20185;-87
2023/09/25 10:36:03;;;;;;;4.25;1.30;;;19.00;99.90;;;;;;5032301;28;20166;-87
2023/09/25 10:38:32;;;;;;;1.98;1.00;;;19.00;99.90;;;;;;5033152;28;20186;-86
2023/09/25 10:41:05;;;;;;;2.60;1.23;;;19.10;99.90;;;;;;5036061;28;20175;-86
2023/09/25 10:43:31;;;;;;;3.35;1.40;;;19.10;99.90;;;;;;5035769;28;20233;-86
2023/09/25 10:45:57;;;;;;;2.22;1.27;;;19.20;99.90;;;;;;5037170;28;20205;-87
2023/09/25 10:48:25;;;;;;;3.60;1.10;;;19.30;99.90;;;;;;5035958;28;20210;-88
2023/09/25 10:50:51;;;;;;;6.35;0.90;;;19.30;99.90;;;;;;5035773;28;20178;-88
2023/09/25 10:53:17;;;;;;;1.65;1.20;;;19.30;99.90;;;;;;5035529;28;20182;-86
2023/09/25 10:55:44;;;;;;;2.63;1.13;;;19.30;99.90;;;;;;5036904;28;20181;-86
2023/09/25 10:58:12;;;;;;;1.90;1.00;;;19.30;99.90;;;;;;5035580;28;20523;-85
2023/09/25 11:00:39;;;;;;;2.75;1.00;;;19.30;99.90;;;;;;5035595;28;20569;-86
2023/09/25 11:03:06;;;;;;;1.48;0.90;;;19.30;99.90;;;;;;5035320;28;20199;-87
2023/09/25 11:05:35;;;;;;;3.17;0.90;;;19.30;99.90;;;;;;5035548;28;20182;-87
2023/09/25 11:08:03;;;;;;;3.85;0.95;;;19.30;99.90;;;;;;5035302;28;20198;-87
2023/09/25 11:10:32;;;;;;;2.72;1.10;;;19.40;99.90;;;;;;5036632;28;20691;-84
2023/09/25 11:13:00;;;;;;;1.35;1.00;;;19.60;99.90;;;;;;5035476;28;20197;-86
2023/09/25 11:15:27;;;;;;;1.90;1.00;;;19.60;99.90;;;;;;5035289;28;20178;-86
2023/09/25 11:17:55;;;;;;;1.65;1.08;;;19.70;99.90;;;;;;5036657;28;20162;-88
2023/09/25 11:20:29;;;;;;;3.47;1.20;;;19.80;99.90;;;;;;5035052;28;20683;-86
2023/09/25 11:23:06;;;;;;;1.33;1.00;;;19.90;99.90;;;;;;5036161;28;20221;-88
2023/09/25 11:25:39;;;;;;;1.60;0.90;;;20.00;99.90;;;;;;5036531;28;20239;-87
2023/09/25 11:28:06;;;;;;;3.15;0.98;;;20.00;99.90;;;;;;5035383;28;20258;-86
2023/09/25 11:30:31;;;;;;;2.90;1.10;;;20.00;99.90;;;;;;5035068;28;20178;-87
2023/09/25 11:33:07;;;;;;;6.72;1.50;;;20.00;99.90;;;;;;5036072;28;20186;-87
2023/09/25 11:35:39;;;;;;;2.47;0.93;;;20.00;99.90;;;;;;5034910;28;20170;-86
2023/09/25 11:38:23;;;;;;;5.47;1.23;;;20.00;99.90;;;;;;5034668;28;20186;-86
2023/09/25 11:40:52;;;;;;;1.73;1.00;;;20.00;99.90;;;;;;5036302;28;20163;-87
2023/09/25 11:43:18;;;;;;;0.73;0.73;;;20.00;99.90;;;;;;5034427;28;20206;-87
2023/09/25 11:45:44;;;;;;;1.50;0.80;;;20.10;99.90;;;;;;5034518;28;20190;-85
2023/09/25 11:48:11;;;;;;;1.77;0.90;;;20.10;99.90;;;;;;5034704;28;20175;-87
2023/09/25 11:50:37;;;;;;;1.65;1.10;;;20.20;99.90;;;;;;5034531;28;20683;-86
2023/09/25 11:53:03;;;;;;;1.35;0.82;;;20.20;99.90;;;;;;5034398;28;20182;-86
2023/09/25 11:55:29;;;;;;;1.98;0.88;;;20.30;99.60;;;;;;5035908;28;20167;-89
2023/09/25 11:57:55;;;;;;;2.28;1.08;;;20.30;97.20;;;;;;5034599;28;20170;-87
2023/09/25 12:00:24;;;;;;;1.27;0.77;;;20.30;98.90;;;;;;5034481;28;20174;-89
2023/09/25 12:02:50;;;;;;;2.78;0.93;;;20.30;98.80;;;;;;5034346;28;20210;-86
2023/09/25 12:05:18;;;;;;;1.80;0.90;;;20.20;97.60;;;;;;5034231;28;20617;-86
2023/09/25 12:07:44;;;;;;;2.05;1.10;;;20.30;97.30;;;;;;5035287;28;20158;-86
2023/09/25 12:10:17;;;;;;;1.00;0.90;;;20.20;97.00;;;;;;5035573;28;20248;-87
2023/09/25 12:12:44;;;;;;;2.10;1.08;;;20.10;98.10;;;;;;5034325;28;20177;-86
2023/09/25 12:15:14;;;;;;;2.90;1.05;;;20.10;97.10;;;;;;5034263;28;20186;-86
2023/09/25 12:17:41;;;;;;;1.42;0.95;;;20.10;97.30;;;;;;5034126;28;20189;-86
2023/09/25 12:20:12;;;;;;;1.27;0.80;;;20.20;99.50;;;;;;5033581;28;20492;-85
2023/09/25 12:22:40;;;;;;;2.83;1.13;;;20.20;98.60;;;;;;5033817;28;20179;-87
2023/09/25 12:25:09;;;;;;;3.58;1.00;;;20.20;99.20;;;;;;5035159;28;20257;-87
2023/09/25 12:27:36;;;;;;;1.95;1.10;;;20.20;99.60;;;;;;5035160;28;20516;-87
2023/09/25 12:30:02;;;;;;;2.55;1.00;;;20.30;99.20;;;;;;5034047;28;20546;-88
2023/09/25 12:32:28;;;;;;;2.55;1.10;;;20.30;99.40;;;;;;5033840;28;20189;-86
2023/09/25 12:34:54;;;;;;;1.85;0.85;;;20.40;99.80;;;;;;5034044;28;20548;-87
2023/09/25 12:37:20;;;;;;;2.60;1.10;;;20.50;98.30;;;;;;5034684;28;20242;-88
2023/09/25 12:39:46;;;;;;;1.67;0.90;;;20.50;98.70;;;;;;5034024;28;20677;-88
2023/09/25 12:42:11;;;;;;;4.72;1.20;;;20.50;98.20;;;;;;5034922;28;20171;-86
2023/09/25 12:44:37;;;;;;;1.60;1.05;;;20.60;99.90;;;;;;5033634;28;20297;-87
2023/09/25 12:47:03;;;;;;;2.75;0.70;;;20.50;98.70;;;;;;5033657;28;20482;-88